Time;durP1;ratioP1;P1;durP2;ratioP2;P2;SDS_P1;SDS_P2;PMS_P1;PMS_P2;Temp;Humidity;BMP_temperature;BMP_pressure;BME280_temperature;BME280_humidity;BME280_pressure;Samples;Min_cycle;Max_cycle;Signal;HPM_P1;HPM_P2
2022/06/15 00:01:28;;;;;;;9.43;4.18;;;;;;;15.99;74.45;97941.06;10455959;28;20059;-57
2022/06/15 00:06:29;;;;;;;7.50;4.15;;;;;;;15.97;74.76;97948.09;10455565;28;20082;-57
2022/06/15 00:11:33;;;;;;;11.50;4.53;;;;;;;15.86;75.95;97942.22;10455725;28;20082;-57
2022/06/15 00:16:32;;;;;;;8.43;4.80;;;;;;;15.69;77.00;97942.47;10455606;28;20063;-59
2022/06/15 00:21:31;;;;;;;;;;;;;;;15.68;77.82;97949.47;10472138;28;20093;-59
2022/06/15 00:26:30;;;;;;;8.40;5.20;;;;;;;15.68;78.42;97941.63;10505413;28;19953;-59
2022/06/15 00:31:28;;;;;;;;;;;;;;;15.74;78.60;97938.06;10451989;28;20111;-59
2022/06/15 00:36:27;;;;;;;8.63;5.25;;;;;;;15.75;78.73;97938.91;10434459;28;19908;-59
2022/06/15 00:41:37;;;;;;;7.60;5.32;;;;;;;15.83;79.38;97939.63;10420084;28;20056;-59
2022/06/15 00:46:38;;;;;;;;;;;;;;;15.80;80.21;97939.72;10461755;28;20753;-59
2022/06/15 00:51:39;;;;;;;11.55;5.82;;;;;;;15.67;80.48;97953.00;10461776;28;20563;-57
2022/06/15 00:56:39;;;;;;;7.45;5.32;;;;;;;15.54;81.14;97946.25;10436657;28;20487;-57
2022/06/15 01:01:38;;;;;;;11.77;6.15;;;;;;;15.53;80.50;97944.53;10418254;28;20549;-57
2022/06/15 01:06:43;;;;;;;10.55;6.65;;;;;;;15.48;80.64;97961.19;10418984;28;20794;-57
2022/06/15 01:11:47;;;;;;;11.07;6.43;;;;;;;15.38;80.73;97960.47;10419839;28;20063;-57
2022/06/15 01:17:16;;;;;;;12.15;6.75;;;;;;;15.27;81.39;97967.63;10408081;28;20517;-57
2022/06/15 01:22:30;;;;;;;9.55;6.43;;;;;;;15.13;81.95;97960.91;10408971;28;20067;-57
2022/06/15 01:27:53;;;;;;;10.07;6.68;;;;;;;14.98;81.96;97937.59;10460861;28;20059;-57
2022/06/15 01:32:55;;;;;;;9.23;6.03;;;;;;;14.95;82.42;97961.19;10460778;28;20055;-57
2022/06/15 01:38:02;;;;;;;9.60;5.53;;;;;;;14.78;82.39;97950.97;10460063;28;20071;-57
2022/06/15 01:43:09;;;;;;;7.70;5.30;;;;;;;14.73;81.98;97960.63;10452425;28;20506;-57
2022/06/15 01:48:11;;;;;;;7.95;5.10;;;;;;;14.55;82.75;97966.94;10444730;28;20067;-57
2022/06/15 01:53:17;;;;;;;10.23;5.32;;;;;;;14.42;82.94;97968.84;10434371;28;20075;-57
2022/06/15 01:58:19;;;;;;;8.50;5.07;;;;;;;14.31;83.25;97962.88;10458165;28;20130;-57
2022/06/15 02:03:31;;;;;;;6.65;4.78;;;;;;;14.26;83.33;97968.16;10459473;28;20070;-57
2022/06/15 02:09:27;;;;;;;6.63;4.88;;;;;;;14.16;83.18;97974.41;10459897;28;20063;-57
2022/06/15 02:14:34;;;;;;;7.80;5.20;;;;;;;14.13;83.43;97977.03;10289192;28;20057;-57
2022/06/15 02:19:41;;;;;;;11.00;6.43;;;;;;;13.78;87.85;97981.75;10420012;28;20071;-57
2022/06/15 02:24:41;;;;;;;11.38;7.38;;;;;;;13.64;88.04;97977.56;10458758;28;20063;-57
2022/06/15 02:29:45;;;;;;;10.80;7.32;;;;;;;13.69;87.87;97988.81;10457959;28;20059;-57
2022/06/15 02:34:44;;;;;;;11.68;7.72;;;;;;;13.69;87.59;97984.47;10415518;28;20567;-57
2022/06/15 02:39:42;;;;;;;16.02;7.88;;;;;;;13.63;88.48;97974.06;10416407;28;20502;-57
2022/06/15 02:44:42;;;;;;;14.75;9.30;;;;;;;13.50;89.71;97982.88;10443881;28;20570;-57
2022/06/15 02:49:41;;;;;;;12.85;7.75;;;;;;;13.46;89.89;97981.16;10435173;28;20554;-57
2022/06/15 02:54:46;;;;;;;18.00;8.07;;;;;;;13.44;90.43;97990.75;10456657;28;20084;-57
2022/06/15 02:59:46;;;;;;;12.30;8.05;;;;;;;13.35;90.53;97989.06;10456549;28;20071;-57
2022/06/15 03:04:47;;;;;;;11.02;8.55;;;;;;;13.27;91.55;97980.47;10435748;28;20067;-57
2022/06/15 03:09:46;;;;;;;11.57;8.43;;;;;;;13.32;90.99;97984.75;10423830;28;20055;-57
2022/06/15 03:14:45;;;;;;;;;;;;;;;13.36;91.16;97991.66;10457369;28;20055;-57
2022/06/15 03:19:44;;;;;;;13.48;8.45;;;;;;;13.40;90.87;97995.13;10437799;28;19915;-57
2022/06/15 03:24:43;;;;;;;16.42;8.52;;;;;;;13.46;90.74;98002.88;10453786;28;20051;-57
2022/06/15 03:29:42;;;;;;;13.00;8.02;;;;;;;13.50;90.80;97999.38;10414934;28;20115;-57
2022/06/15 03:34:41;;;;;;;15.77;8.77;;;;;;;13.47;90.97;98002.03;10446732;28;20103;-57
2022/06/15 03:39:40;;;;;;;17.80;8.45;;;;;;;13.44;91.12;98001.16;10456013;28;20059;-57
2022/06/15 03:44:40;;;;;;;17.30;10.13;;;;;;;13.43;91.30;97992.50;10454185;28;20032;-59
2022/06/15 03:49:39;;;;;;;14.68;8.95;;;;;;;13.37;92.05;98000.34;10454673;28;20071;-59
2022/06/15 03:54:38;;;;;;;14.93;8.65;;;;;;;13.13;93.44;98004.88;10456474;28;20076;-59
2022/06/15 03:59:37;;;;;;;10.80;9.43;;;;;;;13.20;92.97;98005.69;10465003;28;20074;-59
2022/06/15 04:04:37;;;;;;;;;;;;;;;13.25;92.66;98016.09;10463882;28;20047;-59
2022/06/15 04:09:35;;;;;;;15.93;9.88;;;;;;;13.31;92.01;98008.25;10407298;28;19917;-59
2022/06/15 04:14:36;;;;;;;12.77;10.70;;;;;;;13.42;91.75;98019.44;10425725;28;20107;-59
2022/06/15 04:19:35;;;;;;;13.50;9.88;;;;;;;13.52;91.09;98017.63;10433373;28;20495;-59
2022/06/15 04:24:34;;;;;;;12.32;9.68;;;;;;;13.60;91.05;98020.19;10459374;28;21697;-59
2022/06/15 04:29:33;;;;;;;13.07;9.73;;;;;;;13.76;91.08;98019.16;10453632;28;20071;-59
2022/06/15 04:34:32;;;;;;;11.70;9.02;;;;;;;13.69;91.44;98013.16;10462615;28;20501;-59
2022/06/15 04:39:31;;;;;;;12.95;8.85;;;;;;;13.82;91.93;98028.66;10457289;28;20538;-59
2022/06/15 04:44:30;;;;;;;14.18;8.48;;;;;;;13.95;92.08;98031.16;10462250;28;20490;-59
2022/06/15 04:49:29;;;;;;;14.77;9.30;;;;;;;14.09;90.97;98019.72;10462310;28;20028;-59
2022/06/15 04:54:28;;;;;;;15.35;9.20;;;;;;;14.40;90.32;98028.03;10457068;28;20058;-59
2022/06/15 04:59:27;;;;;;;10.48;7.43;;;;;;;14.59;88.83;98032.19;10461355;28;20508;-59
2022/06/15 05:04:26;;;;;;;;;;;;;;;14.78;88.04;98038.06;10460011;28;20023;-59
2022/06/15 05:09:25;;;;;;;11.83;7.53;;;;;;;15.05;87.88;98041.16;10457408;28;20361;-59
2022/06/15 05:14:25;;;;;;;15.60;9.75;;;;;;;15.31;87.51;98037.31;10460656;28;20849;-59
2022/06/15 05:19:24;;;;;;;15.70;8.48;;;;;;;15.62;86.49;98032.44;10457307;28;20074;-59
2022/06/15 05:24:23;;;;;;;;;;;;;;;15.81;82.52;98039.13;10444056;28;20063;-59
2022/06/15 05:29:22;;;;;;;9.48;6.55;;;;;;;15.86;82.20;98039.91;10394222;28;19938;-59
2022/06/15 05:34:21;;;;;;;11.68;8.05;;;;;;;16.03;81.65;98043.97;10425123;28;20060;-59
2022/06/15 05:39:20;;;;;;;10.50;7.10;;;;;;;16.16;80.90;98024.53;10418355;28;20068;-59
2022/06/15 05:49:37;;;;;;;13.75;7.45;;;;;;;16.57;80.39;98042.94;10400144;28;19954;-59
2022/06/15 05:54:37;;;;;;;46.95;30.33;;;;;;;16.73;80.09;98050.44;10416493;28;20084;-59
2022/06/15 05:59:36;;;;;;;32.55;26.20;;;;;;;16.98;80.23;98043.84;10413040;28;20071;-57
2022/06/15 06:04:35;;;;;;;;;;;;;;;17.13;79.36;98051.38;10417647;28;20031;-57
2022/06/15 06:09:34;;;;;;;12.60;7.00;;;;;;;17.32;79.77;98047.41;10417217;28;19978;-57
2022/06/15 06:14:33;;;;;;;9.52;6.20;;;;;;;17.50;76.67;98047.91;10416641;28;20056;-57
2022/06/15 06:19:32;;;;;;;8.95;6.65;;;;;;;17.79;75.40;98051.59;10435942;28;20077;-58
2022/06/15 06:24:31;;;;;;;11.65;7.05;;;;;;;18.00;71.58;98045.78;10400365;28;20074;-59
2022/06/15 06:29:30;;;;;;;8.93;5.20;;;;;;;18.31;69.92;98052.81;10415488;28;20040;-57
2022/06/15 06:34:30;;;;;;;6.85;5.28;;;;;;;18.66;66.13;98046.56;10397240;28;20061;-59
2022/06/15 06:39:30;;;;;;;6.45;4.05;;;;;;;18.88;61.74;98052.13;10403200;28;20075;-57
2022/06/15 06:44:29;;;;;;;6.28;3.53;;;;;;;19.06;55.94;98049.84;10414537;28;20060;-57
2022/06/15 06:49:29;;;;;;;6.97;4.03;;;;;;;19.29;54.34;98052.59;10416156;28;20025;-57
2022/06/15 06:54:29;;;;;;;7.28;3.75;;;;;;;19.40;55.42;98050.50;10401160;28;20519;-58
2022/06/15 06:59:28;;;;;;;11.40;8.70;;;;;;;19.64;54.68;98053.28;10395269;28;20059;-58
2022/06/15 07:04:27;;;;;;;12.10;10.48;;;;;;;19.76;55.72;98052.88;10408400;28;20153;-57
2022/06/15 07:09:27;;;;;;;7.13;4.95;;;;;;;19.76;55.18;98052.88;10415102;28;20071;-58
2022/06/15 07:14:26;;;;;;;6.13;4.07;;;;;;;19.89;55.07;98047.22;10413162;28;20071;-58
2022/06/15 07:19:25;;;;;;;8.32;4.88;;;;;;;20.13;54.37;98046.34;10417779;28;20045;-58
2022/06/15 07:24:24;;;;;;;9.18;4.95;;;;;;;20.25;53.13;98042.44;10373252;28;20084;-58
2022/06/15 07:29:23;;;;;;;6.55;4.35;;;;;;;20.41;52.14;98046.28;10373314;28;20052;-58
2022/06/15 07:34:23;;;;;;;8.77;3.97;;;;;;;20.34;50.94;98043.88;10400792;28;20059;-58
2022/06/15 07:39:28;;;;;;;6.57;4.07;;;;;;;20.50;51.14;98053.84;10377150;28;20072;-58
2022/06/15 07:44:27;;;;;;;4.95;3.63;;;;;;;20.67;51.94;98047.94;10412754;28;20059;-58
2022/06/15 07:54:44;;;;;;;5.60;4.05;;;;;;;20.52;50.30;98035.34;10368797;28;20555;-58
2022/06/15 07:59:43;;;;;;;6.18;3.60;;;;;;;20.77;49.93;98060.78;10370274;28;20483;-58
2022/06/15 08:04:42;;;;;;;6.78;3.50;;;;;;;20.70;49.61;98066.31;10370757;28;20402;-58
2022/06/15 08:09:42;;;;;;;5.65;4.22;;;;;;;20.93;50.90;98068.06;10379012;28;20422;-58
2022/06/15 08:14:48;;;;;;;6.60;3.50;;;;;;;20.82;50.15;98064.13;10412882;28;20067;-58
2022/06/15 08:19:54;;;;;;;6.78;4.78;;;;;;;20.77;50.29;98063.44;10399775;28;20068;-58
2022/06/15 08:24:54;;;;;;;4.57;3.88;;;;;;;21.03;50.87;98065.09;10412753;28;20755;-58
2022/06/15 08:29:53;;;;;;;4.95;3.75;;;;;;;20.97;48.60;98065.34;10412266;28;20059;-58
2022/06/15 08:34:52;;;;;;;5.90;4.35;;;;;;;21.05;49.42;98058.81;10411590;28;20028;-58
2022/06/15 08:39:51;;;;;;;6.63;4.68;;;;;;;21.35;49.90;98061.22;10412485;28;20033;-58
2022/06/15 08:45:21;;;;;;;5.47;3.83;;;;;;;21.41;49.96;98062.78;10422922;28;20060;-58
2022/06/15 08:50:40;;;;;;;8.35;3.63;;;;;;;21.55;49.55;98060.44;10426575;28;20052;-58
2022/06/15 08:56:04;;;;;;;4.45;3.72;;;;;;;21.58;49.00;98068.22;10418592;28;20111;-58
2022/06/15 09:01:17;;;;;;;5.55;3.28;;;;;;;21.65;49.64;98074.97;10419301;28;20463;-58
2022/06/15 09:06:45;;;;;;;4.45;3.50;;;;;;;21.51;49.61;98083.47;10423928;28;20064;-58
2022/06/15 09:17:40;;;;;;;6.95;3.60;;;;;;;21.43;49.97;98043.31;10396101;28;20068;-58
2022/06/15 09:22:50;;;;;;;4.85;3.58;;;;;;;21.61;49.52;98089.22;10389075;28;20064;-58
2022/06/15 09:28:30;;;;;;;5.95;4.07;;;;;;;21.70;49.66;98080.06;10414149;28;20064;-58
2022/06/15 09:33:39;;;;;;;7.28;4.40;;;;;;;21.85;48.50;98075.94;10412382;28;20455;-58
2022/06/15 09:38:38;;;;;;;8.60;3.42;;;;;;;22.06;48.44;98082.13;10403982;28;20068;-58
2022/06/15 09:44:06;;;;;;;5.15;3.70;;;;;;;22.26;48.74;98071.56;10396701;28;20061;-58
2022/06/15 09:49:24;;;;;;;5.45;4.22;;;;;;;22.33;49.14;98073.03;10413740;28;20064;-58
2022/06/15 09:54:48;;;;;;;7.78;4.95;;;;;;;22.19;50.80;98091.28;10390491;28;20555;-59
2022/06/15 09:59:48;;;;;;;5.35;3.85;;;;;;;22.11;50.78;98078.41;10398515;28;20065;-58
2022/06/15 10:04:48;;;;;;;6.32;4.53;;;;;;;22.23;50.80;98079.66;10375114;28;20060;-58
2022/06/15 10:09:52;;;;;;;7.82;4.88;;;;;;;22.60;50.11;98064.81;10375828;28;20072;-58
2022/06/15 10:15:02;;;;;;;6.15;4.47;;;;;;;22.78;50.38;98061.34;10375416;28;20065;-58
2022/06/15 10:20:01;;;;;;;6.63;4.60;;;;;;;23.22;50.63;98063.72;10383364;28;20059;-58
2022/06/15 10:25:05;;;;;;;7.32;5.10;;;;;;;22.97;50.53;98065.81;10375975;28;20060;-58
2022/06/15 10:30:06;;;;;;;6.35;4.78;;;;;;;22.98;51.64;98071.03;10375651;28;20064;-58
2022/06/15 10:35:14;;;;;;;6.38;5.13;;;;;;;23.42;51.37;98061.94;10408779;28;20068;-58
2022/06/15 10:40:23;;;;;;;8.02;5.20;;;;;;;23.25;51.49;98075.97;10388095;28;20060;-58
2022/06/15 10:45:34;;;;;;;6.40;5.15;;;;;;;23.30;52.62;98059.84;10396239;28;20091;-58
2022/06/15 10:50:43;;;;;;;8.73;5.07;;;;;;;23.29;52.25;98069.59;10372763;28;20515;-58
2022/06/15 11:06:48;;;;;;;5.75;5.15;;;;;;;23.39;52.07;98062.06;10372784;28;20076;-58
2022/06/15 11:11:49;;;;;;;6.93;6.00;;;;;;;23.05;52.58;98054.88;10373239;28;20119;-58
2022/06/15 11:22:14;;;;;;;10.20;5.88;;;;;;;22.79;52.95;98055.16;10377142;28;20076;-58
2022/06/15 11:27:44;;;;;;;8.63;6.35;;;;;;;22.76;53.55;98063.25;10372880;28;20056;-58
2022/06/15 11:33:05;;;;;;;7.85;5.65;;;;;;;22.89;52.29;98062.66;10406549;28;20075;-58
2022/06/15 11:38:16;;;;;;;7.05;5.68;;;;;;;22.79;53.77;98055.16;10414735;28;20553;-58
2022/06/15 11:43:20;;;;;;;6.13;5.45;;;;;;;22.77;52.77;98053.50;10401330;28;20072;-58
2022/06/15 11:48:28;;;;;;;7.43;5.82;;;;;;;22.48;54.09;98049.47;10412300;28;20059;-58
2022/06/15 11:53:33;;;;;;;7.85;5.35;;;;;;;22.44;54.90;98056.72;10407759;28;20072;-58
2022/06/15 11:59:06;;;;;;;6.68;5.55;;;;;;;22.71;53.85;98051.94;10371813;28;20159;-58
2022/06/15 12:04:14;;;;;;;7.22;5.95;;;;;;;22.77;53.95;98056.16;10382146;28;20471;-58
2022/06/15 12:09:37;;;;;;;7.10;5.57;;;;;;;22.90;52.64;98054.63;10403208;28;20476;-58
2022/06/15 12:14:43;;;;;;;5.85;5.25;;;;;;;22.51;52.66;98049.38;10391215;28;20091;-58
2022/06/15 12:19:50;;;;;;;7.10;6.00;;;;;;;22.63;54.14;98054.09;10420651;28;20056;-58
2022/06/15 12:25:15;;;;;;;9.20;6.07;;;;;;;23.06;52.67;98049.50;10408977;28;20064;-58
2022/06/15 12:30:42;;;;;;;11.40;6.38;;;;;;;22.67;53.70;98060.09;10399471;28;20071;-58
2022/06/15 12:35:54;;;;;;;7.13;5.72;;;;;;;22.38;53.19;98062.25;10385274;28;20076;-58
2022/06/15 12:46:35;;;;;;;7.32;4.97;;;;;;;22.31;51.72;98053.72;10410105;28;20522;-58
2022/06/15 12:52:11;;;;;;;5.18;4.45;;;;;;;22.68;50.88;98052.09;10422797;28;20076;-58
2022/06/15 12:57:17;;;;;;;7.47;4.70;;;;;;;22.82;49.37;98048.00;10417888;28;20072;-58
2022/06/15 13:02:31;;;;;;;7.70;4.10;;;;;;;22.98;49.12;98041.91;10381311;28;20068;-58
2022/06/15 13:07:34;;;;;;;6.43;4.53;;;;;;;23.20;49.36;98041.75;10382569;28;20068;-58
2022/06/15 13:12:41;;;;;;;4.93;3.95;;;;;;;23.40;47.65;98039.97;10387133;28;20462;-58
2022/06/15 13:23:26;;;;;;;7.43;4.75;;;;;;;23.45;47.62;98043.25;10422547;28;20432;-58
2022/06/15 13:29:07;;;;;;;5.20;3.72;;;;;;;23.53;47.49;98040.25;10421266;28;20063;-58
2022/06/15 13:34:08;;;;;;;6.43;4.20;;;;;;;23.68;46.54;98033.31;10399873;28;20065;-58
2022/06/15 13:39:45;;;;;;;5.55;3.88;;;;;;;23.74;46.05;98033.88;10380230;28;20036;-58
2022/06/15 13:44:50;;;;;;;5.38;4.53;;;;;;;23.68;46.37;98006.81;10380952;28;20061;-58
2022/06/15 13:49:53;;;;;;;5.72;3.80;;;;;;;23.74;46.49;98033.03;10376852;28;20071;-58
2022/06/15 13:55:13;;;;;;;5.22;4.13;;;;;;;23.83;46.76;98038.72;10399496;28;20838;-58
2022/06/15 14:00:28;;;;;;;7.35;4.10;;;;;;;23.75;46.12;98048.00;10418542;28;20059;-58
2022/06/15 14:05:47;;;;;;;8.80;4.43;;;;;;;23.54;48.37;98032.22;10417365;28;20068;-58
2022/06/15 14:10:52;;;;;;;5.97;4.00;;;;;;;23.48;47.83;98043.13;10416776;28;20056;-58
2022/06/15 14:16:09;;;;;;;7.05;4.30;;;;;;;23.48;47.84;98037.81;10415014;28;20060;-58
2022/06/15 14:21:33;;;;;;;6.82;4.35;;;;;;;23.44;47.23;98037.09;10415522;28;20086;-58
2022/06/15 14:26:43;;;;;;;11.38;9.60;;;;;;;23.57;46.95;98044.47;10416319;28;20491;-58
2022/06/15 14:31:54;;;;;;;6.68;5.32;;;;;;;23.64;46.73;98035.28;10414809;28;20056;-58
2022/06/15 14:36:58;;;;;;;5.00;4.32;;;;;;;23.59;46.63;98042.59;10415767;28;20064;-58
2022/06/15 14:42:07;;;;;;;7.35;5.90;;;;;;;23.38;47.29;98018.84;10414663;28;20060;-58
2022/06/15 14:47:10;;;;;;;;;;;;;;;23.21;46.65;98024.97;10416305;28;20075;-58
2022/06/15 14:52:18;;;;;;;10.93;8.50;;;;;;;23.28;47.04;98020.22;10411427;28;19955;-58
2022/06/15 14:57:28;;;;;;;9.73;6.07;;;;;;;23.42;46.96;98012.47;10374355;28;20068;-57
2022/06/15 15:02:43;;;;;;;10.20;7.55;;;;;;;23.50;47.59;98008.63;10374448;28;20467;-58
2022/06/15 15:13:29;;;;;;;5.63;4.53;;;;;;;23.49;45.67;98002.47;10414298;28;20064;-58
2022/06/15 15:18:45;;;;;;;10.93;6.38;;;;;;;23.40;45.82;98003.72;10413923;28;20071;-58
2022/06/15 15:23:44;;;;;;;5.20;4.15;;;;;;;23.14;46.43;97991.78;10413466;28;20060;-58
2022/06/15 15:34:31;;;;;;;7.72;4.95;;;;;;;22.56;49.15;97997.13;10414909;28;20068;-58
2022/06/15 15:39:30;;;;;;;6.57;4.90;;;;;;;22.46;49.05;97979.94;10413609;28;20116;-58
2022/06/15 15:44:30;;;;;;;4.88;4.25;;;;;;;22.79;48.38;97994.28;10413855;28;20068;-58
2022/06/15 15:49:31;;;;;;;9.70;6.65;;;;;;;22.83;48.63;97986.19;10394693;28;20059;-57
2022/06/15 15:54:30;;;;;;;6.32;3.90;;;;;;;22.88;46.90;97992.13;10426339;28;20506;-57
2022/06/15 15:59:29;;;;;;;6.10;4.60;;;;;;;22.98;46.84;97990.78;10427201;28;20083;-58
2022/06/15 16:04:35;;;;;;;5.57;4.38;;;;;;;23.25;47.50;97982.44;10419225;28;20133;-58
2022/06/15 16:09:35;;;;;;;5.15;4.40;;;;;;;23.33;47.52;97980.28;10387953;28;20060;-57
2022/06/15 16:14:34;;;;;;;6.35;4.72;;;;;;;23.43;47.62;97982.38;10415496;28;20071;-58
2022/06/15 16:19:34;;;;;;;6.53;4.90;;;;;;;23.32;48.24;97989.16;10419850;28;20036;-59
2022/06/15 16:24:34;;;;;;;5.97;5.38;;;;;;;23.23;48.24;97985.16;10385123;28;20111;-58
2022/06/15 16:29:34;;;;;;;7.05;4.90;;;;;;;23.07;48.29;97965.63;10386708;28;20065;-58
2022/06/15 16:34:33;;;;;;;6.68;4.47;;;;;;;23.03;48.26;97978.19;10392740;28;20079;-58
2022/06/15 16:39:32;;;;;;;6.97;4.50;;;;;;;22.92;48.72;97991.06;10434877;28;20494;-58
2022/06/15 16:44:31;;;;;;;6.07;4.47;;;;;;;22.83;48.67;97991.50;10426155;28;20068;-58
2022/06/15 16:49:30;;;;;;;8.43;5.05;;;;;;;22.70;48.86;97985.91;10398633;28;20123;-58
2022/06/15 16:54:31;;;;;;;6.13;4.68;;;;;;;22.66;49.52;97994.91;10419786;28;20101;-57
2022/06/15 16:59:33;;;;;;;7.60;4.55;;;;;;;22.47;49.75;97992.25;10403941;28;20071;-58
2022/06/15 17:04:33;;;;;;;9.65;5.28;;;;;;;22.34;49.73;97992.81;10394888;28;20060;-58
2022/06/15 17:09:33;;;;;;;6.78;5.10;;;;;;;22.14;50.14;97992.81;10419884;28;20068;-57
2022/06/15 17:14:35;;;;;;;6.78;4.68;;;;;;;22.09;51.11;97993.03;10419088;28;20527;-58
2022/06/15 17:19:34;;;;;;;11.52;4.93;;;;;;;21.94;51.77;98001.56;10417980;28;20079;-58
2022/06/15 17:24:33;;;;;;;5.47;4.50;;;;;;;21.89;52.59;98001.75;10418993;28;20037;-58
2022/06/15 17:29:33;;;;;;;6.53;4.95;;;;;;;21.76;53.15;97997.94;10418926;28;20071;-58
2022/06/15 17:34:33;;;;;;;11.70;5.60;;;;;;;21.70;53.85;98004.34;10419033;28;20048;-58
2022/06/15 17:39:33;;;;;;;9.20;6.13;;;;;;;21.62;54.69;98005.59;10416912;28;20078;-57
2022/06/15 17:44:35;;;;;;;10.35;6.10;;;;;;;21.47;57.14;98013.19;10400132;28;20098;-57
2022/06/15 17:49:35;;;;;;;10.25;5.72;;;;;;;21.24;58.48;98005.34;10398579;28;20075;-57
2022/06/15 17:54:34;;;;;;;8.20;6.13;;;;;;;21.07;59.34;98014.78;10419549;28;20080;-57
2022/06/15 17:59:33;;;;;;;7.18;5.53;;;;;;;20.87;60.38;98017.34;10419411;28;20067;-57
2022/06/15 18:04:32;;;;;;;7.68;5.68;;;;;;;20.62;61.03;98020.03;10398402;28;20068;-57
2022/06/15 18:09:32;;;;;;;7.53;5.22;;;;;;;20.32;62.18;98024.63;10379369;28;20112;-57
2022/06/15 18:14:37;;;;;;;9.02;5.85;;;;;;;19.98;63.19;98031.09;10406200;28;20063;-58
2022/06/15 18:19:41;;;;;;;8.10;5.65;;;;;;;19.67;64.62;98037.38;10419372;28;20051;-58
2022/06/15 18:24:42;;;;;;;6.50;5.68;;;;;;;19.35;65.55;98026.13;10419840;28;20069;-58
2022/06/15 18:29:41;;;;;;;6.75;5.70;;;;;;;19.11;66.47;98032.13;10420345;28;20067;-58
2022/06/15 18:34:43;;;;;;;7.72;6.00;;;;;;;19.00;67.20;98043.84;10413311;28;20072;-57
2022/06/15 18:39:44;;;;;;;10.13;6.38;;;;;;;18.82;67.33;98042.63;10419757;28;20077;-58
2022/06/15 18:50:03;;;;;;;14.05;6.70;;;;;;;18.47;69.51;98048.88;10410770;28;20519;-57
2022/06/15 18:55:03;;;;;;;7.72;6.07;;;;;;;18.30;69.69;98059.84;10424202;28;20087;-58
2022/06/15 19:00:08;;;;;;;9.63;6.25;;;;;;;18.17;70.16;98066.34;10411723;28;20064;-57
2022/06/15 19:05:09;;;;;;;11.98;6.60;;;;;;;18.04;70.40;98073.69;10374372;28;20064;-57
2022/06/15 19:10:10;;;;;;;9.18;7.13;;;;;;;17.89;71.14;98074.91;10373960;28;20060;-58
2022/06/15 19:15:10;;;;;;;8.13;6.57;;;;;;;17.83;72.21;98074.25;10374797;28;20064;-57
2022/06/15 19:20:11;;;;;;;10.63;7.30;;;;;;;17.73;72.88;98084.94;10374462;28;20064;-57
2022/06/15 19:25:12;;;;;;;10.98;6.88;;;;;;;17.65;73.51;98080.75;10406999;28;20082;-58
2022/06/15 19:30:12;;;;;;;11.20;7.78;;;;;;;17.56;73.65;98087.09;10413457;28;20068;-57
2022/06/15 19:35:17;;;;;;;11.98;6.90;;;;;;;17.50;74.21;98087.25;10414218;28;20060;-58
2022/06/15 19:40:21;;;;;;;11.15;7.10;;;;;;;17.38;74.16;98092.75;10411882;28;20079;-57
2022/06/15 19:45:20;;;;;;;9.00;6.25;;;;;;;17.33;74.22;98090.25;10405670;28;20072;-57
2022/06/15 19:50:19;;;;;;;12.43;6.70;;;;;;;17.24;74.82;98086.09;10413465;28;20064;-57
2022/06/15 19:55:18;;;;;;;10.82;7.65;;;;;;;17.16;75.54;98085.38;10434200;28;20182;-57
2022/06/15 20:00:19;;;;;;;10.18;8.23;;;;;;;16.98;77.70;98091.03;10431775;28;20031;-57
2022/06/15 20:05:20;;;;;;;13.18;7.70;;;;;;;16.86;78.06;98082.53;10430936;28;20055;-57
2022/06/15 20:10:24;;;;;;;10.35;7.50;;;;;;;16.78;79.67;98094.03;10434307;28;20498;-57
2022/06/15 20:15:24;;;;;;;11.90;7.88;;;;;;;16.72;79.75;98093.28;10429190;28;20075;-57
2022/06/15 20:20:27;;;;;;;12.35;8.48;;;;;;;16.63;80.83;98103.06;10430874;28;20071;-57
2022/06/15 20:25:28;;;;;;;12.18;9.18;;;;;;;16.50;81.79;98092.81;10424598;28;20124;-57
2022/06/15 20:30:27;;;;;;;13.02;8.55;;;;;;;16.41;82.05;98092.13;10423462;28;20071;-57
2022/06/15 20:35:26;;;;;;;14.18;9.70;;;;;;;16.31;82.33;98099.31;10382631;28;20068;-57
2022/06/15 20:40:28;;;;;;;;;;;;;;;16.24;82.37;98090.69;10390910;28;20071;-57
2022/06/15 20:45:29;;;;;;;10.13;7.75;;;;;;;16.13;82.44;98097.88;10408545;28;19964;-57
2022/06/15 20:50:32;;;;;;;12.02;8.07;;;;;;;16.05;82.67;98103.25;10424387;28;20071;-57
2022/06/15 20:56:42;;;;;;;11.15;8.75;;;;;;;15.98;82.82;98104.25;10420556;28;20101;-57
2022/06/15 21:00:51;;;;;;;13.70;8.30;;;;;;;15.82;83.50;98105.41;10416070;28;20084;-58
2022/06/15 21:05:50;;;;;;;14.68;8.93;;;;;;;15.74;83.85;98115.09;10423169;28;20063;-57
2022/06/15 21:21:25;;;;;;;14.77;10.05;;;;;;;15.63;85.20;98115.28;10422858;28;20064;-57
2022/06/15 21:26:25;;;;;;;14.68;9.32;;;;;;;15.59;85.37;98117.06;10434885;28;20068;-58
2022/06/15 21:31:24;;;;;;;16.17;10.48;;;;;;;15.49;86.58;98112.00;10464239;28;20483;-57
2022/06/15 21:36:23;;;;;;;16.80;10.07;;;;;;;15.44;86.87;98110.31;10454865;28;20124;-57
2022/06/15 21:41:22;;;;;;;;;;;;;;;15.41;87.20;98117.31;10381807;28;20151;-57
2022/06/15 21:46:23;;;;;;;12.75;9.40;;;;;;;15.36;87.23;98114.78;10380308;28;19913;-57
2022/06/15 21:51:22;;;;;;;15.38;10.48;;;;;;;15.31;87.03;98106.13;10384752;28;20463;-57
2022/06/15 21:56:21;;;;;;;13.52;8.90;;;;;;;15.27;86.78;98114.06;10402294;28;20076;-57
2022/06/15 22:01:20;;;;;;;;;;;;;;;15.22;86.48;98107.16;10396750;28;20036;-57
2022/06/15 22:06:18;;;;;;;12.15;8.00;;;;;;;15.14;86.41;98103.78;10397412;28;19919;-57
2022/06/15 22:11:18;;;;;;;13.20;8.85;;;;;;;15.02;86.42;98093.50;10394784;28;20033;-57
2022/06/15 22:16:17;;;;;;;;;;;;;;;15.02;86.76;98093.50;10396833;28;20489;-57
2022/06/15 22:21:20;;;;;;;12.45;9.68;;;;;;;14.93;87.19;98106.69;10374647;28;20669;-57
2022/06/15 22:26:19;;;;;;;12.55;9.65;;;;;;;14.84;87.70;98107.66;10374882;28;20142;-57
2022/06/15 22:31:18;;;;;;;;;;;;;;;14.69;89.40;98111.28;10434005;28;20024;-57
2022/06/15 22:36:17;;;;;;;15.00;10.48;;;;;;;14.49;91.68;98118.47;10416315;28;20395;-57
2022/06/15 22:41:16;;;;;;;16.50;10.90;;;;;;;14.44;91.53;98115.06;10417019;28;20361;-57
2022/06/15 22:46:15;;;;;;;15.75;11.02;;;;;;;14.42;91.61;98117.66;10396718;28;20033;-57
2022/06/15 22:51:14;;;;;;;;;;;;;;;14.41;91.59;98115.94;10389972;28;20029;-57
2022/06/15 22:56:13;;;;;;;15.90;10.82;;;;;;;14.32;91.65;98103.00;10395610;28;19959;-57
2022/06/15 23:01:19;;;;;;;;;;;;;;;14.32;91.93;98114.28;10428574;28;20068;-57
2022/06/15 23:06:19;;;;;;;17.50;10.95;;;;;;;14.26;91.90;98106.50;10409012;28;19963;-57
2022/06/15 23:11:19;;;;;;;15.85;11.98;;;;;;;14.24;92.21;98113.53;10414180;28;20059;-57
2022/06/15 23:16:18;;;;;;;20.38;12.13;;;;;;;14.19;92.82;98117.91;10374998;28;20056;-57
2022/06/15 23:21:21;;;;;;;;;;;;;;;14.14;92.97;98117.94;10388197;28;20032;-57
2022/06/15 23:26:20;;;;;;;19.40;12.95;;;;;;;14.09;93.80;98116.25;10450660;28;19955;-57
2022/06/15 23:31:20;;;;;;;22.33;14.35;;;;;;;14.06;94.43;98118.91;10444929;28;20064;-57
2022/06/15 23:36:20;;;;;;;30.35;15.23;;;;;;;14.06;94.31;98119.78;10374208;28;20064;-57
2022/06/15 23:52:00;;;;;;;21.00;13.20;;;;;;;14.06;94.51;98119.78;10383860;28;20079;-57
2022/06/15 23:56:59;;;;;;;19.42;11.88;;;;;;;14.08;94.38;98117.16;10425413;28;20083;-57
